createdAt,value
2023-02-05T00:01:56.535Z,10.80
2023-02-05T00:04:24.584Z,10.37
2023-02-05T00:06:52.333Z,9.83
2023-02-05T00:09:20.091Z,9.77
2023-02-05T00:11:47.838Z,10.83
2023-02-05T00:14:15.556Z,9.57
2023-02-05T00:16:46.664Z,11.13
2023-02-05T00:19:15.848Z,8.90
2023-02-05T00:21:44.295Z,10.53
2023-02-05T00:24:13.077Z,10.87
2023-02-05T00:26:42.078Z,13.00
2023-02-05T00:29:09.818Z,13.43
2023-02-05T00:31:37.673Z,10.80
2023-02-05T00:34:05.485Z,10.87
2023-02-05T00:36:34.611Z,10.60
2023-02-05T00:39:02.381Z,12.73
2023-02-05T00:41:30.099Z,7.83
2023-02-05T00:43:57.837Z,9.23
2023-02-05T00:46:25.578Z,10.87
2023-02-05T00:48:53.383Z,10.77
2023-02-05T00:51:21.157Z,10.03
2023-02-05T00:53:50.335Z,9.20
2023-02-05T00:56:18.070Z,8.67
2023-02-05T00:58:47.884Z,11.07
2023-02-05T01:01:19.081Z,9.30
2023-02-05T01:03:46.912Z,8.17
2023-02-05T01:06:14.944Z,9.27
2023-02-05T01:08:42.721Z,7.37
2023-02-05T01:11:12.163Z,7.07
2023-02-05T01:13:40.577Z,11.10
2023-02-05T01:16:10.358Z,11.23
2023-02-05T01:18:41.678Z,8.03
2023-02-05T01:21:09.483Z,8.90
2023-02-05T01:23:37.224Z,8.77
2023-02-05T01:26:05.065Z,8.40
2023-02-05T01:28:34.144Z,10.27
2023-02-05T01:31:01.977Z,7.00
2023-02-05T01:33:29.744Z,12.20
2023-02-05T01:35:57.491Z,7.20
2023-02-05T01:38:25.209Z,7.70
2023-02-05T01:40:52.984Z,8.67
2023-02-05T01:43:24.060Z,7.63
2023-02-05T01:46:06.391Z,6.73
2023-02-05T01:48:37.491Z,7.90
2023-02-05T01:51:09.706Z,5.83
2023-02-05T01:53:39.158Z,9.67
2023-02-05T01:56:11.450Z,6.33
2023-02-05T01:58:48.997Z,9.83
2023-02-05T02:01:18.199Z,6.90
2023-02-05T02:03:46.465Z,9.00
2023-02-05T02:06:14.237Z,7.77
2023-02-05T02:08:42.000Z,7.00
2023-02-05T02:11:11.949Z,6.87
2023-02-05T02:13:41.007Z,6.70
2023-02-05T02:16:09.792Z,9.50
2023-02-05T02:18:40.280Z,8.53
2023-02-05T02:21:39.852Z,8.03
2023-02-05T02:24:22.904Z,7.97
2023-02-05T02:27:17.592Z,7.57
2023-02-05T02:29:52.434Z,9.17
2023-02-05T02:32:25.913Z,8.37
2023-02-05T02:35:00.844Z,8.80
2023-02-05T02:37:36.003Z,5.70
2023-02-05T02:40:12.120Z,8.57
2023-02-05T02:42:45.752Z,8.87
2023-02-05T02:45:18.824Z,7.93
2023-02-05T02:47:50.496Z,7.10
2023-02-05T02:50:22.887Z,7.20
2023-02-05T02:52:52.821Z,6.87
2023-02-05T02:55:23.199Z,7.87
2023-02-05T02:57:54.042Z,9.40
2023-02-05T03:00:26.904Z,8.17
2023-02-05T03:03:00.190Z,9.20
2023-02-05T03:05:29.868Z,7.27
2023-02-05T03:08:01.050Z,8.77
2023-02-05T03:10:37.277Z,8.70
2023-02-05T03:13:05.036Z,6.17
2023-02-05T03:15:34.445Z,7.83
2023-02-05T03:18:02.488Z,5.80
2023-02-05T03:20:34.162Z,6.23
2023-02-05T03:23:02.218Z,7.20
2023-02-05T03:25:30.517Z,7.17
2023-02-05T03:27:59.490Z,6.63
2023-02-05T03:30:32.255Z,7.23
2023-02-05T03:33:10.217Z,9.13
2023-02-05T03:35:44.210Z,6.63
2023-02-05T03:38:35.069Z,6.27
2023-02-05T03:41:11.366Z,7.43
2023-02-05T03:43:48.595Z,8.30
2023-02-05T03:46:19.368Z,6.53
2023-02-05T03:49:02.752Z,8.93
2023-02-05T03:51:37.290Z,8.90
2023-02-05T03:54:12.504Z,6.67
2023-02-05T03:56:47.292Z,7.83
2023-02-05T03:59:17.194Z,6.70
2023-02-05T04:01:46.048Z,8.47
2023-02-05T04:04:15.399Z,7.97
2023-02-05T04:06:43.673Z,7.80
2023-02-05T04:09:26.292Z,7.70
2023-02-05T04:11:54.026Z,6.03
2023-02-05T04:14:21.745Z,11.00
2023-02-05T04:16:49.465Z,6.53
2023-02-05T04:19:18.609Z,6.40
2023-02-05T04:21:46.382Z,6.90
2023-02-05T04:24:14.122Z,6.40
2023-02-05T04:26:41.899Z,9.17
2023-02-05T04:29:09.607Z,9.67
2023-02-05T04:31:37.569Z,9.10
2023-02-05T04:34:05.311Z,10.87
2023-02-05T04:36:34.402Z,10.00
2023-02-05T04:39:02.081Z,7.27
2023-02-05T04:41:29.804Z,6.93
2023-02-05T04:43:57.504Z,6.57
2023-02-05T04:46:25.251Z,7.17
2023-02-05T04:48:52.955Z,8.63
2023-02-05T04:51:20.770Z,8.53
2023-02-05T04:53:49.802Z,7.33
2023-02-05T04:56:19.169Z,6.67
2023-02-05T04:58:47.294Z,6.23
2023-02-05T05:01:16.674Z,8.27
2023-02-05T05:03:44.589Z,7.73
2023-02-05T05:06:13.134Z,10.80
2023-02-05T05:08:40.876Z,7.20
2023-02-05T05:11:11.713Z,9.23
2023-02-05T05:13:40.174Z,13.67
2023-02-05T05:16:08.629Z,9.10
2023-02-05T05:18:36.536Z,8.43
2023-02-05T05:21:05.733Z,8.83
2023-02-05T05:23:34.411Z,9.60
2023-02-05T05:26:05.468Z,8.77
2023-02-05T05:28:34.901Z,10.53
2023-02-05T05:31:08.312Z,7.40
2023-02-05T05:33:36.616Z,9.93
2023-02-05T05:36:04.874Z,10.70
2023-02-05T05:38:32.850Z,9.57
2023-02-05T05:41:18.154Z,10.20
2023-02-05T05:43:47.883Z,11.37
2023-02-05T05:46:21.858Z,11.53
2023-02-05T05:48:51.492Z,9.17
2023-02-05T05:51:19.765Z,8.90
2023-02-05T05:53:47.769Z,9.70
2023-02-05T05:56:15.656Z,10.60
2023-02-05T05:58:48.689Z,11.50
2023-02-05T06:01:19.112Z,10.83
2023-02-05T06:03:46.825Z,9.33
2023-02-05T06:06:14.749Z,7.97
2023-02-05T06:08:42.475Z,8.80
2023-02-05T06:11:10.249Z,9.30
2023-02-05T06:13:38.077Z,8.67
2023-02-05T06:16:07.860Z,9.20
2023-02-05T06:18:39.034Z,11.40
2023-02-05T06:21:06.876Z,9.77
2023-02-05T06:23:35.049Z,10.63
2023-02-05T06:26:02.900Z,11.47
2023-02-05T06:28:30.651Z,13.10
2023-02-05T06:30:58.474Z,9.13
2023-02-05T06:33:27.538Z,8.40
2023-02-05T06:35:55.230Z,7.77
2023-02-05T06:38:22.928Z,10.10
2023-02-05T06:40:50.933Z,9.60
2023-02-05T06:43:18.648Z,11.07
2023-02-05T06:45:46.451Z,10.23
2023-02-05T06:48:14.228Z,10.60
2023-02-05T06:50:43.275Z,10.90
2023-02-05T06:53:14.331Z,11.83
2023-02-05T06:55:42.081Z,9.97
2023-02-05T06:58:09.782Z,9.40
2023-02-05T07:00:37.529Z,11.20
2023-02-05T07:03:05.343Z,10.97
2023-02-05T07:05:34.702Z,9.87
2023-02-05T07:08:06.680Z,9.00
2023-02-05T07:10:34.661Z,9.33
2023-02-05T07:13:04.442Z,9.23
2023-02-05T07:15:33.679Z,8.90
2023-02-05T07:18:01.564Z,10.40
2023-02-05T07:20:29.278Z,9.80
2023-02-05T07:22:56.985Z,12.27
2023-02-05T07:25:26.056Z,10.83
2023-02-05T07:27:53.862Z,10.97
2023-02-05T07:30:21.750Z,11.63
2023-02-05T07:32:49.466Z,11.20
2023-02-05T07:35:17.383Z,9.93
2023-02-05T07:37:45.162Z,8.30
2023-02-05T07:40:13.485Z,8.27
2023-02-05T07:42:42.529Z,10.03
2023-02-05T07:45:11.000Z,13.77
2023-02-05T07:47:38.739Z,10.00
2023-02-05T07:50:07.162Z,12.90
2023-02-05T07:52:35.218Z,12.87
2023-02-05T07:55:02.902Z,11.00
2023-02-05T07:57:30.617Z,8.50
2023-02-05T07:59:59.659Z,11.67
2023-02-05T08:02:27.363Z,8.97
2023-02-05T08:04:55.062Z,8.10
2023-02-05T08:07:22.740Z,7.67
2023-02-05T08:09:50.430Z,8.43
2023-02-05T08:12:18.164Z,7.20
2023-02-05T08:14:46.219Z,6.87
2023-02-05T08:17:15.278Z,9.10
2023-02-05T08:19:43.069Z,8.13
2023-02-05T08:22:10.828Z,7.83
2023-02-05T08:24:38.570Z,7.70
2023-02-05T08:27:06.321Z,7.13
2023-02-05T08:29:34.050Z,7.07
2023-02-05T08:32:01.811Z,8.47
2023-02-05T08:34:30.918Z,9.73
2023-02-05T08:36:59.783Z,7.77
2023-02-05T08:39:27.525Z,10.00
2023-02-05T08:41:57.024Z,7.87
2023-02-05T08:44:24.955Z,6.63
2023-02-05T08:46:52.682Z,6.93
2023-02-05T08:49:20.459Z,5.27
2023-02-05T08:51:49.714Z,6.03
2023-02-05T08:54:17.484Z,5.07
2023-02-05T08:56:46.570Z,6.70
2023-02-05T08:59:14.365Z,8.73
2023-02-05T09:01:43.336Z,6.23
2023-02-05T09:04:26.036Z,9.20
2023-02-05T09:06:55.160Z,9.87
2023-02-05T09:09:22.879Z,7.70
2023-02-05T09:11:50.616Z,8.00
2023-02-05T09:14:18.433Z,7.47
2023-02-05T09:16:46.224Z,5.67
2023-02-05T09:19:13.963Z,5.57
2023-02-05T09:21:42.189Z,6.80
2023-02-05T09:24:11.224Z,5.23
2023-02-05T09:26:38.976Z,8.63
2023-02-05T09:29:06.733Z,6.33
2023-02-05T09:31:34.524Z,7.77
2023-02-05T09:34:03.644Z,7.53
2023-02-05T09:36:31.491Z,8.77
2023-02-05T09:39:12.980Z,4.87
2023-02-05T09:41:51.974Z,7.43
2023-02-05T09:44:27.205Z,5.00
2023-02-05T09:47:01.372Z,4.40
2023-02-05T09:49:31.472Z,5.47
2023-02-05T09:52:03.241Z,5.17
2023-02-05T09:54:34.038Z,3.83
2023-02-05T09:57:07.906Z,2.90
2023-02-05T09:59:36.082Z,8.00
2023-02-05T10:02:17.529Z,5.13
2023-02-05T10:04:45.227Z,6.00
2023-02-05T10:07:25.334Z,4.97
2023-02-05T10:10:22.405Z,7.10
2023-02-05T10:13:09.781Z,4.57
2023-02-05T10:15:54.409Z,5.67
2023-02-05T10:18:27.988Z,8.60
2023-02-05T10:21:02.537Z,5.00
2023-02-05T10:23:52.080Z,7.87
2023-02-05T10:26:19.852Z,5.80
2023-02-05T10:29:21.225Z,7.83
2023-02-05T10:32:00.393Z,6.30
2023-02-05T10:34:47.012Z,5.77
2023-02-05T10:37:18.448Z,9.97
2023-02-05T10:39:46.896Z,7.10
2023-02-05T10:42:27.334Z,4.20
2023-02-05T10:45:04.823Z,3.27
2023-02-05T10:47:50.693Z,5.27
2023-02-05T10:50:26.370Z,4.70
2023-02-05T10:52:54.135Z,3.77
2023-02-05T10:55:21.879Z,2.73
2023-02-05T10:57:49.746Z,4.00
2023-02-05T11:00:22.060Z,3.63
2023-02-05T11:02:52.261Z,4.53
2023-02-05T11:05:25.324Z,4.53
2023-02-05T11:07:54.966Z,4.53
2023-02-05T11:10:25.339Z,4.07
2023-02-05T11:12:56.307Z,2.47
2023-02-05T11:15:53.909Z,3.57
2023-02-05T11:18:25.436Z,2.50
2023-02-05T11:20:57.014Z,4.43
2023-02-05T11:23:26.006Z,3.83
2023-02-05T11:25:55.923Z,4.93
2023-02-05T11:28:28.002Z,3.47
2023-02-05T11:30:58.361Z,4.60
2023-02-05T11:33:29.566Z,3.67
2023-02-05T11:36:01.115Z,3.13
2023-02-05T11:38:35.520Z,6.23
2023-02-05T11:41:05.866Z,3.77
2023-02-05T11:43:35.435Z,3.07
2023-02-05T11:46:07.921Z,2.43
2023-02-05T11:48:41.466Z,3.53
2023-02-05T11:51:12.409Z,4.03
2023-02-05T11:53:51.229Z,4.50
2023-02-05T11:56:25.090Z,3.17
2023-02-05T11:59:00.805Z,3.10
2023-02-05T12:01:33.887Z,2.30
2023-02-05T12:04:03.545Z,2.07
2023-02-05T12:06:36.360Z,2.07
2023-02-05T12:09:05.078Z,4.47
2023-02-05T12:12:03.739Z,2.50
2023-02-05T12:14:42.114Z,3.00
2023-02-05T12:17:36.952Z,5.20
2023-02-05T12:20:16.449Z,5.90
2023-02-05T12:23:02.619Z,5.00
2023-02-05T12:25:36.172Z,2.63
2023-02-05T12:28:19.564Z,5.80
2023-02-05T12:31:00.161Z,1.93
2023-02-05T12:33:49.971Z,3.00
2023-02-05T12:36:31.035Z,5.20
2023-02-05T12:39:08.292Z,10.63
2023-02-05T12:41:44.573Z,4.23
2023-02-05T12:44:25.006Z,4.70
2023-02-05T12:47:05.672Z,5.53
2023-02-05T12:49:55.541Z,2.87
2023-02-05T12:52:36.053Z,3.50
2023-02-05T12:55:15.936Z,2.00
2023-02-05T12:57:47.431Z,2.70
2023-02-05T13:00:22.949Z,3.10
2023-02-05T13:02:58.341Z,3.80
2023-02-05T13:05:32.520Z,4.13
2023-02-05T13:08:08.965Z,5.10
2023-02-05T13:10:46.532Z,4.67
2023-02-05T13:13:20.534Z,2.70
2023-02-05T13:15:59.187Z,3.77
2023-02-05T13:18:30.442Z,3.23
2023-02-05T13:21:21.159Z,3.83
2023-02-05T13:24:07.415Z,3.70
2023-02-05T13:26:58.018Z,3.50
2023-02-05T13:29:30.774Z,4.57
2023-02-05T13:32:14.791Z,3.57
2023-02-05T13:34:43.342Z,4.20
2023-02-05T13:37:30.205Z,1.93
2023-02-05T13:40:16.287Z,3.20
2023-02-05T13:43:16.699Z,2.70
2023-02-05T13:46:18.445Z,2.63
2023-02-05T13:49:18.798Z,4.57
2023-02-05T13:52:03.614Z,4.37
2023-02-05T13:55:11.164Z,3.43
2023-02-05T13:58:12.504Z,2.10
2023-02-05T14:00:43.298Z,2.67
2023-02-05T14:03:27.631Z,5.97
2023-02-05T14:05:55.393Z,4.07
2023-02-05T14:08:26.718Z,3.47
2023-02-05T14:11:01.720Z,4.40
2023-02-05T14:13:33.654Z,2.67
2023-02-05T14:16:34.929Z,5.83
2023-02-05T14:19:22.441Z,6.30
2023-02-05T14:21:59.876Z,6.10
2023-02-05T14:24:39.835Z,4.33
2023-02-05T14:27:49.539Z,3.57
2023-02-05T14:30:38.336Z,6.57
2023-02-05T14:33:28.991Z,7.03
2023-02-05T14:35:58.549Z,2.83
2023-02-05T14:38:29.904Z,3.63
2023-02-05T14:41:08.220Z,6.70
2023-02-05T14:43:39.446Z,4.00
2023-02-05T14:46:20.771Z,7.30
2023-02-05T14:48:49.352Z,7.13
2023-02-05T14:51:25.762Z,4.87
2023-02-05T14:54:00.323Z,3.53
2023-02-05T14:56:33.989Z,5.73
2023-02-05T14:59:08.435Z,8.87
2023-02-05T15:01:45.771Z,6.10
2023-02-05T15:04:25.763Z,6.60
2023-02-05T15:06:55.060Z,6.23
2023-02-05T15:09:37.853Z,8.20
2023-02-05T15:12:28.917Z,8.77
2023-02-05T15:14:59.257Z,6.27
2023-02-05T15:17:52.201Z,5.83
2023-02-05T15:20:26.560Z,3.67
2023-02-05T15:23:07.204Z,4.03
2023-02-05T15:25:39.492Z,7.03
2023-02-05T15:28:18.888Z,18.73
2023-02-05T15:30:58.157Z,19.60
2023-02-05T15:33:34.087Z,25.23
2023-02-05T15:36:06.240Z,12.00
2023-02-05T15:38:37.262Z,12.43
2023-02-05T15:41:08.145Z,9.10
2023-02-05T15:43:36.055Z,8.07
2023-02-05T15:46:07.492Z,5.40
2023-02-05T15:48:38.229Z,6.40
2023-02-05T15:51:14.689Z,4.90
2023-02-05T15:53:46.153Z,6.33
2023-02-05T15:56:17.436Z,8.07
2023-02-05T15:58:50.291Z,4.70
2023-02-05T16:01:26.399Z,4.30
2023-02-05T16:03:54.209Z,6.37
2023-02-05T16:06:22.788Z,7.93
2023-02-05T16:08:52.509Z,5.83
2023-02-05T16:11:28.063Z,5.97
2023-02-05T16:14:07.212Z,7.07
2023-02-05T16:16:40.398Z,13.67
2023-02-05T16:19:15.429Z,6.87
2023-02-05T16:21:47.296Z,9.33
2023-02-05T16:24:27.429Z,7.53
2023-02-05T16:26:59.355Z,6.43
2023-02-05T16:29:38.993Z,6.53
2023-02-05T16:32:22.745Z,6.27
2023-02-05T16:34:51.272Z,8.97
2023-02-05T16:37:20.149Z,10.00
2023-02-05T16:39:53.439Z,6.23
2023-02-05T16:42:33.430Z,7.13
2023-02-05T16:45:19.288Z,8.07
2023-02-05T16:48:24.386Z,17.03
2023-02-05T16:50:53.553Z,29.87
2023-02-05T16:53:26.473Z,26.47
2023-02-05T16:55:59.166Z,16.23
2023-02-05T16:58:29.456Z,18.03
2023-02-05T17:00:59.764Z,12.93
2023-02-05T17:03:35.428Z,8.23
2023-02-05T17:06:05.422Z,7.87
2023-02-05T17:08:36.598Z,8.07
2023-02-05T17:11:06.485Z,11.83
2023-02-05T17:13:39.582Z,10.80
2023-02-05T17:16:24.914Z,10.33
2023-02-05T17:18:58.740Z,7.47
2023-02-05T17:21:31.601Z,14.70
2023-02-05T17:24:01.620Z,9.53
2023-02-05T17:26:32.054Z,8.73
2023-02-05T17:29:02.244Z,12.07
2023-02-05T17:31:39.534Z,7.27
2023-02-05T17:34:08.912Z,8.07
2023-02-05T17:36:36.714Z,9.87
2023-02-05T17:39:04.612Z,8.40
2023-02-05T17:41:55.761Z,12.80
2023-02-05T17:44:23.704Z,14.03
2023-02-05T17:46:54.048Z,18.10
2023-02-05T17:49:23.200Z,21.30
2023-02-05T17:51:50.992Z,12.90
2023-02-05T17:54:20.595Z,11.13
2023-02-05T17:56:50.079Z,10.80
2023-02-05T17:59:19.932Z,9.90
2023-02-05T18:01:47.988Z,9.07
2023-02-05T18:04:16.036Z,9.90
2023-02-05T18:06:46.635Z,8.03
2023-02-05T18:09:14.441Z,7.33
2023-02-05T18:11:42.929Z,7.23
2023-02-05T18:14:11.276Z,11.30
2023-02-05T18:16:39.129Z,13.57
2023-02-05T18:19:06.889Z,11.90
2023-02-05T18:21:35.867Z,17.30
2023-02-05T18:24:05.315Z,13.67
2023-02-05T18:26:33.402Z,11.60
2023-02-05T18:29:01.243Z,13.50
2023-02-05T18:31:29.080Z,17.00
2023-02-05T18:33:56.878Z,11.40
2023-02-05T18:36:24.756Z,12.53
2023-02-05T18:38:52.508Z,16.33
2023-02-05T18:41:22.484Z,14.53
2023-02-05T18:43:53.969Z,12.20
2023-02-05T18:46:23.968Z,10.67
2023-02-05T18:48:52.359Z,14.73
2023-02-05T18:51:22.818Z,14.37
2023-02-05T18:53:51.043Z,11.80
2023-02-05T18:56:22.970Z,12.73
2023-02-05T18:58:56.321Z,11.93
2023-02-05T19:01:24.199Z,12.40
2023-02-05T19:03:54.311Z,11.97
2023-02-05T19:06:22.469Z,9.67
2023-02-05T19:08:50.758Z,12.67
2023-02-05T19:11:22.771Z,14.50
2023-02-05T19:13:56.336Z,19.50
2023-02-05T19:16:25.304Z,15.87
2023-02-05T19:18:53.101Z,18.23
2023-02-05T19:21:23.279Z,22.87
2023-02-05T19:23:54.109Z,15.53
2023-02-05T19:26:25.123Z,16.10
2023-02-05T19:28:55.968Z,20.60
2023-02-05T19:31:25.980Z,22.40
2023-02-05T19:33:54.108Z,19.70
2023-02-05T19:36:22.613Z,21.00
2023-02-05T19:38:50.582Z,19.50
2023-02-05T19:41:21.990Z,21.30
2023-02-05T19:43:53.252Z,21.93
2023-02-05T19:46:23.176Z,20.40
2023-02-05T19:48:50.923Z,19.70
2023-02-05T19:51:19.019Z,18.70
2023-02-05T19:53:47.697Z,17.60
2023-02-05T19:56:17.409Z,17.87
2023-02-05T19:58:47.218Z,23.37
2023-02-05T20:01:18.480Z,22.63
2023-02-05T20:03:46.846Z,22.87
2023-02-05T20:06:18.343Z,21.07
2023-02-05T20:08:47.378Z,24.17
2023-02-05T20:11:16.266Z,21.90
2023-02-05T20:13:44.313Z,28.80
2023-02-05T20:16:14.432Z,35.03
2023-02-05T20:18:44.288Z,28.90
2023-02-05T20:21:14.217Z,28.53
2023-02-05T20:23:42.681Z,28.93
2023-02-05T20:26:10.930Z,34.67
2023-02-05T20:29:00.661Z,35.40
2023-02-05T20:31:35.330Z,38.23
2023-02-05T20:34:06.484Z,37.07
2023-02-05T20:36:35.709Z,40.53
2023-02-05T20:39:07.313Z,40.83
2023-02-05T20:41:35.479Z,35.93
2023-02-05T20:44:04.050Z,41.30
2023-02-05T20:46:32.547Z,38.97
2023-02-05T20:49:01.148Z,41.23
2023-02-05T20:51:30.383Z,43.53
2023-02-05T20:53:58.477Z,46.00
2023-02-05T20:56:28.229Z,41.40
2023-02-05T20:58:58.745Z,45.27
2023-02-05T21:01:27.716Z,45.23
2023-02-05T21:03:58.806Z,42.33
2023-02-05T21:06:27.996Z,42.37
2023-02-05T21:08:57.343Z,39.43
2023-02-05T21:11:26.561Z,42.07
2023-02-05T21:13:54.346Z,52.60
2023-02-05T21:16:24.249Z,49.87
2023-02-05T21:18:53.073Z,47.03
2023-02-05T21:21:22.531Z,52.97
2023-02-05T21:23:54.413Z,47.97
2023-02-05T21:26:26.371Z,49.87
2023-02-05T21:28:54.935Z,52.40
2023-02-05T21:31:23.579Z,46.03
2023-02-05T21:33:51.347Z,47.70
2023-02-05T21:36:20.433Z,48.43
2023-02-05T21:38:48.282Z,47.93
2023-02-05T21:41:17.883Z,47.60
2023-02-05T21:44:02.140Z,44.47
2023-02-05T21:46:31.422Z,42.00
2023-02-05T21:49:00.505Z,47.20
2023-02-05T21:51:30.527Z,45.87
2023-02-05T21:53:59.782Z,48.30
2023-02-05T21:56:30.048Z,44.30
2023-02-05T21:58:57.914Z,45.23
2023-02-05T22:01:28.940Z,45.67
2023-02-05T22:03:58.383Z,49.30
2023-02-05T22:06:28.689Z,45.43
2023-02-05T22:08:57.145Z,45.27
2023-02-05T22:11:25.631Z,42.60
2023-02-05T22:13:54.948Z,48.63
2023-02-05T22:16:24.767Z,48.10
2023-02-05T22:18:54.921Z,35.77
2023-02-05T22:21:25.717Z,38.83
2023-02-05T22:23:55.203Z,34.47
2023-02-05T22:26:24.750Z,33.20
2023-02-05T22:28:52.887Z,39.37
2023-02-05T22:31:22.109Z,39.07
2023-02-05T22:33:50.997Z,37.67
2023-02-05T22:36:22.669Z,39.73
2023-02-05T22:38:51.667Z,37.40
2023-02-05T22:41:21.149Z,39.63
2023-02-05T22:43:49.331Z,37.53
2023-02-05T22:46:19.615Z,40.67
2023-02-05T22:48:50.158Z,42.60
2023-02-05T22:51:21.114Z,41.40
2023-02-05T22:53:49.157Z,40.13
2023-02-05T22:56:17.916Z,42.53
2023-02-05T22:58:47.849Z,40.23
2023-02-05T23:01:17.780Z,39.20
2023-02-05T23:03:49.146Z,47.53
2023-02-05T23:06:22.018Z,52.03
2023-02-05T23:08:53.656Z,46.87
2023-02-05T23:11:22.200Z,46.17
2023-02-05T23:13:50.549Z,46.03
2023-02-05T23:16:21.587Z,43.30
2023-02-05T23:18:51.625Z,47.00
2023-02-05T23:21:23.179Z,47.77
2023-02-05T23:23:51.630Z,46.73
2023-02-05T23:26:21.812Z,42.80
2023-02-05T23:28:50.040Z,36.00
2023-02-05T23:31:18.030Z,32.70
2023-02-05T23:33:45.784Z,33.03
2023-02-05T23:36:13.808Z,32.77
2023-02-05T23:38:42.855Z,29.27
2023-02-05T23:41:12.203Z,33.53
2023-02-05T23:43:40.777Z,36.37
2023-02-05T23:46:09.415Z,30.13
2023-02-05T23:48:37.203Z,32.37
2023-02-05T23:51:04.908Z,30.10
2023-02-05T23:53:32.626Z,30.47
2023-02-05T23:56:02.684Z,31.93
2023-02-05T23:58:30.371Z,30.00
